AEA72QU LEMD-LEIB
Flight info
| Callsign | AEA72QU |
|---|---|
| Flight time | 0h 52m |
| Altitude | 30000 |
| Route | NANDO T257 FENXE/N0409F320 T257 LASPO Z224 VARUT |
| Aircraft | B738/M-SDE2E3FGHIRWXY/LB1 |
Departure
| Time | 2026-05-07 14:44 |
|---|---|
| Airport | Adolfo Suárez Madrid–Barajas Airport (LEMD) |
Arrival
| Time | 2026-05-07 15:36 |
|---|---|
| Airport | Ibiza Airport (LEIB) |
| Time | Latitude | Longitude | Altitude | Speed | Heading |
|---|---|---|---|---|---|
| 2026-05-07 14:28 | 40.47367 | -3.57088 | 1989 ft | 0 kts | 182° |
| 2026-05-07 14:34 | 40.47365 | -3.57093 | 1989 ft | 1 kts | 230° |
| 2026-05-07 14:35 | 40.47366 | -3.57099 | 1990 ft | 1 kts | 269° |
| 2026-05-07 14:35 | 40.47386 | -3.57115 | 1989 ft | 7 kts | 334° |
| 2026-05-07 14:35 | 40.47453 | -3.57152 | 1992 ft | 13 kts | 341° |
| 2026-05-07 14:35 | 40.47540 | -3.57199 | 1995 ft | 13 kts | 357° |
| 2026-05-07 14:36 | 40.47612 | -3.57129 | 1996 ft | 13 kts | 22° |
| 2026-05-07 14:36 | 40.47689 | -3.57177 | 1996 ft | 13 kts | 322° |
| 2026-05-07 14:36 | 40.47763 | -3.57252 | 2000 ft | 16 kts | 322° |
| 2026-05-07 14:36 | 40.47869 | -3.57359 | 2003 ft | 22 kts | 322° |
| 2026-05-07 14:37 | 40.48003 | -3.57496 | 2001 ft | 25 kts | 322° |
| 2026-05-07 14:37 | 40.48265 | -3.57762 | 1992 ft | 23 kts | 322° |
| 2026-05-07 14:37 | 40.48391 | -3.57882 | 1990 ft | 22 kts | 326° |
| 2026-05-07 14:38 | 40.48518 | -3.57987 | 1999 ft | 21 kts | 329° |
| 2026-05-07 14:38 | 40.48654 | -3.58049 | 2002 ft | 21 kts | 359° |
| 2026-05-07 14:38 | 40.48796 | -3.58050 | 2002 ft | 20 kts | 360° |
| 2026-05-07 14:38 | 40.48858 | -3.57928 | 1998 ft | 20 kts | 89° |
| 2026-05-07 14:39 | 40.48858 | -3.57749 | 1992 ft | 19 kts | 90° |
| 2026-05-07 14:39 | 40.48858 | -3.57576 | 1989 ft | 19 kts | 90° |
| 2026-05-07 14:39 | 40.48859 | -3.57408 | 1986 ft | 18 kts | 90° |
| 2026-05-07 14:39 | 40.48860 | -3.57206 | 1982 ft | 27 kts | 89° |
| 2026-05-07 14:40 | 40.48861 | -3.56954 | 1977 ft | 27 kts | 89° |
| 2026-05-07 14:40 | 40.48861 | -3.56712 | 1973 ft | 26 kts | 89° |
| 2026-05-07 14:40 | 40.48862 | -3.56486 | 1967 ft | 24 kts | 90° |
| 2026-05-07 14:40 | 40.48870 | -3.56284 | 1962 ft | 20 kts | 65° |
| 2026-05-07 14:41 | 40.48991 | -3.56244 | 1961 ft | 14 kts | 359° |
| 2026-05-07 14:41 | 40.49043 | -3.56245 | 1961 ft | 7 kts | 359° |
| 2026-05-07 14:41 | 40.49092 | -3.56245 | 1961 ft | 7 kts | 360° |
| 2026-05-07 14:41 | 40.49176 | -3.56245 | 1961 ft | 18 kts | 360° |
| 2026-05-07 14:42 | 40.49305 | -3.56178 | 1959 ft | 23 kts | 62° |
| 2026-05-07 14:42 | 40.49453 | -3.56142 | 1958 ft | 22 kts | 359° |
| 2026-05-07 14:42 | 40.49607 | -3.56144 | 1958 ft | 23 kts | 359° |
| 2026-05-07 14:42 | 40.49775 | -3.56145 | 1958 ft | 25 kts | 360° |
| 2026-05-07 14:43 | 40.49940 | -3.56099 | 1957 ft | 24 kts | 59° |
| 2026-05-07 14:43 | 40.50024 | -3.55939 | 1959 ft | 22 kts | 24° |
| 2026-05-07 14:43 | 40.50181 | -3.55921 | 1960 ft | 34 kts | 360° |
| 2026-05-07 14:43 | 40.50658 | -3.55925 | 1964 ft | 102 kts | 360° |
| 2026-05-07 14:44 | 40.51570 | -3.55930 | 1973 ft | 156 kts | 359° |
| 2026-05-07 14:44 | 40.52678 | -3.55921 | 2575 ft | 161 kts | 360° |
| 2026-05-07 14:44 | 40.53791 | -3.55843 | 3388 ft | 161 kts | 7° |
| 2026-05-07 14:44 | 40.54939 | -3.55559 | 3985 ft | 181 kts | 13° |
| 2026-05-07 14:45 | 40.56248 | -3.55072 | 4416 ft | 205 kts | 16° |
| 2026-05-07 14:45 | 40.57650 | -3.54519 | 4972 ft | 216 kts | 17° |
| 2026-05-07 14:45 | 40.59159 | -3.53866 | 5395 ft | 235 kts | 28° |
| 2026-05-07 14:45 | 40.60497 | -3.52647 | 6223 ft | 233 kts | 43° |
| 2026-05-07 14:46 | 40.61517 | -3.51482 | 6928 ft | 235 kts | 43° |
| 2026-05-07 14:46 | 40.62555 | -3.50304 | 7314 ft | 250 kts | 43° |
| 2026-05-07 14:46 | 40.63901 | -3.48784 | 8009 ft | 257 kts | 43° |
| 2026-05-07 14:47 | 40.65260 | -3.47254 | 8812 ft | 258 kts | 43° |
| 2026-05-07 14:47 | 40.66638 | -3.45707 | 9568 ft | 262 kts | 43° |
| 2026-05-07 14:47 | 40.68038 | -3.44139 | 10308 ft | 266 kts | 42° |
| 2026-05-07 14:47 | 40.69458 | -3.42550 | 11049 ft | 270 kts | 41° |
| 2026-05-07 14:48 | 40.70897 | -3.40938 | 11778 ft | 274 kts | 41° |
| 2026-05-07 14:48 | 40.72364 | -3.39294 | 12512 ft | 277 kts | 41° |
| 2026-05-07 14:48 | 40.73576 | -3.37327 | 13228 ft | 279 kts | 69° |
| 2026-05-07 14:48 | 40.73916 | -3.34852 | 13928 ft | 278 kts | 97° |
| 2026-05-07 14:49 | 40.73339 | -3.32381 | 14301 ft | 289 kts | 123° |
| 2026-05-07 14:49 | 40.72170 | -3.30191 | 14946 ft | 295 kts | 130° |
| 2026-05-07 14:49 | 40.70892 | -3.28080 | 15739 ft | 296 kts | 136° |
| 2026-05-07 14:49 | 40.69223 | -3.26556 | 16513 ft | 292 kts | 158° |
| 2026-05-07 14:50 | 40.67341 | -3.25508 | 17282 ft | 294 kts | 160° |
| 2026-05-07 14:50 | 40.65429 | -3.24521 | 17967 ft | 298 kts | 161° |
| 2026-05-07 14:50 | 40.63490 | -3.23529 | 18689 ft | 300 kts | 160° |
| 2026-05-07 14:50 | 40.61529 | -3.22520 | 19392 ft | 302 kts | 160° |
| 2026-05-07 14:51 | 40.59569 | -3.21503 | 20075 ft | 305 kts | 160° |
| 2026-05-07 14:51 | 40.57582 | -3.20465 | 20720 ft | 308 kts | 160° |
| 2026-05-07 14:51 | 40.55583 | -3.19415 | 21379 ft | 310 kts | 160° |
| 2026-05-07 14:51 | 40.53580 | -3.18361 | 21983 ft | 313 kts | 161° |
| 2026-05-07 14:52 | 40.51548 | -3.17293 | 22586 ft | 316 kts | 161° |
| 2026-05-07 14:52 | 40.49492 | -3.16209 | 23216 ft | 318 kts | 161° |
| 2026-05-07 14:52 | 40.47434 | -3.15125 | 23820 ft | 321 kts | 161° |
| 2026-05-07 14:52 | 40.45350 | -3.14028 | 24410 ft | 323 kts | 161° |
| 2026-05-07 14:53 | 40.43254 | -3.12928 | 24980 ft | 326 kts | 161° |
| 2026-05-07 14:53 | 40.41143 | -3.11814 | 25551 ft | 328 kts | 160° |
| 2026-05-07 14:53 | 40.39155 | -3.10259 | 25932 ft | 342 kts | 145° |
| 2026-05-07 14:53 | 40.37304 | -3.08186 | 26087 ft | 357 kts | 143° |
| 2026-05-07 14:54 | 40.35416 | -3.05981 | 26302 ft | 369 kts | 142° |
| 2026-05-07 14:54 | 40.33484 | -3.03715 | 26643 ft | 376 kts | 143° |
| 2026-05-07 14:54 | 40.31519 | -3.01428 | 27091 ft | 379 kts | 143° |
| 2026-05-07 14:54 | 40.29543 | -2.99149 | 27685 ft | 377 kts | 143° |
| 2026-05-07 14:55 | 40.27578 | -2.96898 | 28367 ft | 373 kts | 144° |
| 2026-05-07 14:55 | 40.25627 | -2.94674 | 28994 ft | 371 kts | 144° |
| 2026-05-07 14:55 | 40.23683 | -2.92466 | 29546 ft | 369 kts | 144° |
| 2026-05-07 14:55 | 40.21740 | -2.90265 | 29942 ft | 371 kts | 145° |
| 2026-05-07 14:56 | 40.17862 | -2.85870 | 29937 ft | 366 kts | 145° |
| 2026-05-07 14:56 | 40.14062 | -2.81396 | 29930 ft | 375 kts | 135° |
| 2026-05-07 14:57 | 40.12716 | -2.78424 | 29949 ft | 389 kts | 117° |
| 2026-05-07 14:57 | 40.11879 | -2.75037 | 29960 ft | 393 kts | 113° |
| 2026-05-07 14:57 | 40.10380 | -2.68124 | 29948 ft | 395 kts | 112° |
| 2026-05-07 14:58 | 40.08874 | -2.61218 | 29953 ft | 395 kts | 113° |
| 2026-05-07 14:58 | 40.07333 | -2.54338 | 29954 ft | 395 kts | 114° |
| 2026-05-07 14:59 | 40.05773 | -2.47470 | 29953 ft | 394 kts | 114° |
| 2026-05-07 14:59 | 40.04210 | -2.40623 | 29955 ft | 393 kts | 114° |
| 2026-05-07 15:00 | 40.03050 | -2.35558 | 29973 ft | 393 kts | 114° |
| 2026-05-07 15:00 | 40.01514 | -2.28858 | 29966 ft | 393 kts | 114° |
| 2026-05-07 15:01 | 39.99938 | -2.22004 | 29959 ft | 395 kts | 114° |
| 2026-05-07 15:01 | 39.98157 | -2.15292 | 29960 ft | 384 kts | 125° |
| 2026-05-07 15:02 | 39.95570 | -2.09241 | 29960 ft | 381 kts | 128° |
| 2026-05-07 15:02 | 39.92917 | -2.03245 | 29963 ft | 382 kts | 127° |
| 2026-05-07 15:03 | 39.90306 | -1.97205 | 29975 ft | 383 kts | 127° |
| 2026-05-07 15:03 | 39.87716 | -1.91137 | 29972 ft | 384 kts | 127° |
| 2026-05-07 15:04 | 39.85129 | -1.85069 | 29974 ft | 383 kts | 127° |
| 2026-05-07 15:04 | 39.82557 | -1.79042 | 29964 ft | 383 kts | 127° |
| 2026-05-07 15:05 | 39.79969 | -1.72993 | 29963 ft | 383 kts | 127° |
| 2026-05-07 15:05 | 39.77358 | -1.66901 | 29964 ft | 383 kts | 127° |
| 2026-05-07 15:06 | 39.74781 | -1.60900 | 29963 ft | 382 kts | 127° |
| 2026-05-07 15:06 | 39.72188 | -1.54875 | 29960 ft | 382 kts | 127° |
| 2026-05-07 15:07 | 39.69596 | -1.48868 | 29964 ft | 381 kts | 127° |
| 2026-05-07 15:07 | 39.67012 | -1.42888 | 29960 ft | 380 kts | 127° |
| 2026-05-07 15:08 | 39.64841 | -1.37873 | 29967 ft | 380 kts | 127° |
| 2026-05-07 15:08 | 39.62248 | -1.31893 | 29964 ft | 380 kts | 127° |
| 2026-05-07 15:09 | 39.59649 | -1.25911 | 29964 ft | 381 kts | 127° |
| 2026-05-07 15:09 | 39.57049 | -1.19931 | 29961 ft | 381 kts | 127° |
| 2026-05-07 15:10 | 39.54444 | -1.13955 | 29954 ft | 381 kts | 127° |
| 2026-05-07 15:10 | 39.51844 | -1.07984 | 29947 ft | 387 kts | 125° |
| 2026-05-07 15:11 | 39.49148 | -1.01797 | 29965 ft | 400 kts | 125° |
| 2026-05-07 15:11 | 39.46424 | -0.95535 | 29952 ft | 399 kts | 125° |
| 2026-05-07 15:12 | 39.43693 | -0.89286 | 29935 ft | 398 kts | 125° |
| 2026-05-07 15:12 | 39.40974 | -0.83060 | 29942 ft | 397 kts | 125° |
| 2026-05-07 15:13 | 39.38276 | -0.76927 | 29923 ft | 384 kts | 125° |
| 2026-05-07 15:13 | 39.36962 | -0.73949 | 29308 ft | 388 kts | 125° |
| 2026-05-07 15:13 | 39.35625 | -0.70932 | 28886 ft | 386 kts | 125° |
| 2026-05-07 15:14 | 39.34289 | -0.67917 | 28445 ft | 385 kts | 125° |
| 2026-05-07 15:14 | 39.32966 | -0.64926 | 28064 ft | 382 kts | 124° |
| 2026-05-07 15:14 | 39.31657 | -0.61965 | 27799 ft | 376 kts | 124° |
| 2026-05-07 15:14 | 39.30364 | -0.59048 | 27545 ft | 372 kts | 124° |
| 2026-05-07 15:15 | 39.29089 | -0.56173 | 27287 ft | 368 kts | 124° |
| 2026-05-07 15:15 | 39.27989 | -0.53179 | 26902 ft | 374 kts | 114° |
| 2026-05-07 15:15 | 39.27224 | -0.49907 | 26333 ft | 382 kts | 109° |
| 2026-05-07 15:15 | 39.26548 | -0.46585 | 25869 ft | 382 kts | 108° |
| 2026-05-07 15:16 | 39.25893 | -0.43278 | 25502 ft | 379 kts | 107° |
| 2026-05-07 15:16 | 39.25237 | -0.39997 | 25131 ft | 376 kts | 107° |
| 2026-05-07 15:16 | 39.24578 | -0.36746 | 24762 ft | 374 kts | 108° |
| 2026-05-07 15:16 | 39.23913 | -0.33512 | 24386 ft | 371 kts | 108° |
| 2026-05-07 15:17 | 39.23247 | -0.30308 | 24022 ft | 368 kts | 108° |
| 2026-05-07 15:17 | 39.22579 | -0.27124 | 23660 ft | 366 kts | 108° |
| 2026-05-07 15:17 | 39.21915 | -0.23970 | 23301 ft | 363 kts | 108° |
| 2026-05-07 15:17 | 39.21255 | -0.20840 | 22944 ft | 360 kts | 108° |
| 2026-05-07 15:18 | 39.20597 | -0.17733 | 22589 ft | 358 kts | 108° |
| 2026-05-07 15:18 | 39.19943 | -0.14650 | 22235 ft | 356 kts | 107° |
| 2026-05-07 15:18 | 39.19292 | -0.11585 | 21885 ft | 353 kts | 108° |
| 2026-05-07 15:18 | 39.18645 | -0.08542 | 21536 ft | 351 kts | 108° |
| 2026-05-07 15:19 | 39.18002 | -0.05516 | 21187 ft | 349 kts | 108° |
| 2026-05-07 15:19 | 39.17362 | -0.02514 | 20841 ft | 346 kts | 108° |
| 2026-05-07 15:19 | 39.16724 | 0.00473 | 20495 ft | 344 kts | 108° |
| 2026-05-07 15:19 | 39.16092 | 0.03436 | 20145 ft | 342 kts | 108° |
| 2026-05-07 15:20 | 39.15463 | 0.06378 | 19803 ft | 340 kts | 110° |
| 2026-05-07 15:20 | 39.14835 | 0.09309 | 19467 ft | 337 kts | 110° |
| 2026-05-07 15:20 | 39.14211 | 0.12217 | 19130 ft | 335 kts | 110° |
| 2026-05-07 15:20 | 39.13593 | 0.15094 | 18799 ft | 333 kts | 110° |
| 2026-05-07 15:21 | 39.12977 | 0.17957 | 18473 ft | 331 kts | 110° |
| 2026-05-07 15:21 | 39.12129 | 0.20655 | 18159 ft | 321 kts | 125° |
| 2026-05-07 15:21 | 39.10940 | 0.23070 | 17734 ft | 321 kts | 127° |
| 2026-05-07 15:21 | 39.09715 | 0.25485 | 17284 ft | 322 kts | 127° |
| 2026-05-07 15:22 | 39.08492 | 0.27894 | 16935 ft | 320 kts | 127° |
| 2026-05-07 15:22 | 39.07283 | 0.30287 | 16601 ft | 318 kts | 126° |
| 2026-05-07 15:22 | 39.06083 | 0.32669 | 16262 ft | 316 kts | 126° |
| 2026-05-07 15:22 | 39.04894 | 0.35041 | 15890 ft | 315 kts | 126° |
| 2026-05-07 15:23 | 39.03713 | 0.37403 | 15551 ft | 313 kts | 126° |
| 2026-05-07 15:23 | 39.02539 | 0.39753 | 15214 ft | 311 kts | 125° |
| 2026-05-07 15:23 | 39.01370 | 0.42093 | 14892 ft | 310 kts | 125° |
| 2026-05-07 15:23 | 39.00209 | 0.44417 | 14577 ft | 308 kts | 125° |
| 2026-05-07 15:24 | 38.99053 | 0.46731 | 14249 ft | 307 kts | 125° |
| 2026-05-07 15:24 | 38.97901 | 0.49034 | 13935 ft | 305 kts | 125° |
| 2026-05-07 15:24 | 38.96753 | 0.51330 | 13626 ft | 304 kts | 124° |
| 2026-05-07 15:24 | 38.95614 | 0.53607 | 13313 ft | 302 kts | 124° |
| 2026-05-07 15:25 | 38.94480 | 0.55871 | 13004 ft | 301 kts | 124° |
| 2026-05-07 15:25 | 38.93351 | 0.58123 | 12699 ft | 299 kts | 124° |
| 2026-05-07 15:25 | 38.92226 | 0.60366 | 12392 ft | 298 kts | 124° |
| 2026-05-07 15:25 | 38.91107 | 0.62596 | 12090 ft | 296 kts | 124° |
| 2026-05-07 15:26 | 38.89997 | 0.64808 | 11805 ft | 294 kts | 124° |
| 2026-05-07 15:26 | 38.88890 | 0.67010 | 11495 ft | 293 kts | 123° |
| 2026-05-07 15:26 | 38.87785 | 0.69208 | 11177 ft | 292 kts | 123° |
| 2026-05-07 15:26 | 38.86681 | 0.71401 | 10868 ft | 291 kts | 123° |
| 2026-05-07 15:27 | 38.85582 | 0.73583 | 10552 ft | 291 kts | 123° |
| 2026-05-07 15:27 | 38.84487 | 0.75756 | 10247 ft | 290 kts | 123° |
| 2026-05-07 15:27 | 38.83395 | 0.77922 | 9954 ft | 288 kts | 123° |
| 2026-05-07 15:27 | 38.82310 | 0.80074 | 9614 ft | 288 kts | 122° |
| 2026-05-07 15:28 | 38.81223 | 0.82225 | 9339 ft | 286 kts | 122° |
| 2026-05-07 15:28 | 38.80146 | 0.84357 | 9034 ft | 284 kts | 122° |
| 2026-05-07 15:28 | 38.79076 | 0.86475 | 8606 ft | 282 kts | 122° |
| 2026-05-07 15:28 | 38.78009 | 0.88587 | 8115 ft | 282 kts | 122° |
| 2026-05-07 15:29 | 38.76947 | 0.90686 | 7681 ft | 280 kts | 122° |
| 2026-05-07 15:29 | 38.75890 | 0.92773 | 7267 ft | 277 kts | 122° |
| 2026-05-07 15:29 | 38.74847 | 0.94829 | 6863 ft | 275 kts | 122° |
| 2026-05-07 15:29 | 38.73809 | 0.96875 | 6448 ft | 272 kts | 122° |
| 2026-05-07 15:30 | 38.72863 | 0.98936 | 5928 ft | 264 kts | 110° |
| 2026-05-07 15:30 | 38.72633 | 1.00169 | 5477 ft | 263 kts | 93° |
| 2026-05-07 15:30 | 38.72789 | 1.02021 | 4897 ft | 265 kts | 75° |
| 2026-05-07 15:30 | 38.73479 | 1.04190 | 4281 ft | 262 kts | 64° |
| 2026-05-07 15:31 | 38.74333 | 1.06233 | 3682 ft | 258 kts | 62° |
| 2026-05-07 15:31 | 38.75162 | 1.08168 | 3512 ft | 239 kts | 62° |
| 2026-05-07 15:31 | 38.75965 | 1.09953 | 3277 ft | 226 kts | 61° |
| 2026-05-07 15:31 | 38.76735 | 1.11692 | 3042 ft | 226 kts | 63° |
| 2026-05-07 15:32 | 38.77482 | 1.13470 | 3027 ft | 228 kts | 64° |
| 2026-05-07 15:32 | 38.78208 | 1.15235 | 2998 ft | 216 kts | 64° |
| 2026-05-07 15:32 | 38.78882 | 1.16877 | 3003 ft | 203 kts | 64° |
| 2026-05-07 15:32 | 38.79526 | 1.18449 | 2944 ft | 196 kts | 64° |
| 2026-05-07 15:33 | 38.80153 | 1.19978 | 2733 ft | 190 kts | 64° |
| 2026-05-07 15:33 | 38.80753 | 1.21441 | 2488 ft | 182 kts | 64° |
| 2026-05-07 15:33 | 38.81333 | 1.22854 | 2256 ft | 177 kts | 64° |
| 2026-05-07 15:33 | 38.81901 | 1.24236 | 2020 ft | 172 kts | 64° |
| 2026-05-07 15:34 | 38.82448 | 1.25567 | 1795 ft | 166 kts | 64° |
| 2026-05-07 15:34 | 38.82982 | 1.26865 | 1586 ft | 164 kts | 64° |
| 2026-05-07 15:34 | 38.83517 | 1.28166 | 1371 ft | 164 kts | 64° |
| 2026-05-07 15:34 | 38.84032 | 1.29419 | 1162 ft | 154 kts | 64° |
| 2026-05-07 15:35 | 38.84525 | 1.30618 | 954 ft | 151 kts | 64° |
| 2026-05-07 15:35 | 38.84995 | 1.31757 | 768 ft | 139 kts | 64° |
| 2026-05-07 15:35 | 38.85439 | 1.32836 | 579 ft | 135 kts | 64° |
| 2026-05-07 15:35 | 38.85878 | 1.33907 | 416 ft | 136 kts | 65° |
| 2026-05-07 15:36 | 38.86331 | 1.35005 | 227 ft | 140 kts | 64° |
| 2026-05-07 15:36 | 38.86790 | 1.36119 | 33 ft | 142 kts | 63° |
| 2026-05-07 15:36 | 38.87191 | 1.37091 | 29 ft | 95 kts | 62° |
| 2026-05-07 15:36 | 38.87405 | 1.37602 | 31 ft | 47 kts | 61° |
| 2026-05-07 15:37 | 38.87586 | 1.37859 | 32 ft | 31 kts | 33° |
| 2026-05-07 15:37 | 38.87676 | 1.37893 | 37 ft | 3 kts | 318° |
| 2026-05-07 15:37 | 38.87687 | 1.37874 | 39 ft | 3 kts | 297° |
| 2026-05-07 15:37 | 38.87688 | 1.37851 | 39 ft | 3 kts | 264° |
| 2026-05-07 15:38 | 38.87684 | 1.37830 | 40 ft | 2 kts | 250° |
| 2026-05-07 15:38 | 38.87669 | 1.37790 | 41 ft | 11 kts | 243° |
| 2026-05-07 15:38 | 38.87617 | 1.37663 | 42 ft | 18 kts | 242° |
| 2026-05-07 15:38 | 38.87565 | 1.37537 | 43 ft | 13 kts | 242° |
| 2026-05-07 15:39 | 38.87523 | 1.37434 | 41 ft | 13 kts | 243° |
| 2026-05-07 15:39 | 38.87480 | 1.37332 | 42 ft | 13 kts | 242° |
| 2026-05-07 15:39 | 38.87438 | 1.37229 | 38 ft | 13 kts | 242° |
| 2026-05-07 15:39 | 38.87396 | 1.37129 | 38 ft | 13 kts | 242° |
| 2026-05-07 15:40 | 38.87354 | 1.37028 | 38 ft | 13 kts | 242° |
| 2026-05-07 15:40 | 38.87312 | 1.36926 | 35 ft | 13 kts | 243° |
| 2026-05-07 15:40 | 38.87323 | 1.36838 | 38 ft | 10 kts | 336° |
| 2026-05-07 15:40 | 38.87384 | 1.36802 | 39 ft | 8 kts | 334° |
| 2026-05-07 15:41 | 38.87434 | 1.36797 | 42 ft | 8 kts | 38° |
| 2026-05-07 15:41 | 38.87463 | 1.36854 | 43 ft | 8 kts | 62° |
| 2026-05-07 15:41 | 38.87487 | 1.36913 | 42 ft | 7 kts | 62° |
| 2026-05-07 15:41 | 38.87510 | 1.36969 | 45 ft | 7 kts | 62° |
| 2026-05-07 15:42 | 38.87538 | 1.37024 | 44 ft | 6 kts | 31° |
| 2026-05-07 15:42 | 38.87577 | 1.37008 | 47 ft | 6 kts | 332° |
| 2026-05-07 15:42 | 38.87592 | 1.36998 | 48 ft | 0 kts | 332° |